sensor_id;sensor_type;location;lat;lon;timestamp;temperature;humidity
18948;DHT22;9607;51.600;7.558;2023-11-21T00:01:07;7.70;99.90
18948;DHT22;9607;51.600;7.558;2023-11-21T00:03:34;7.80;99.90
18948;DHT22;9607;51.600;7.558;2023-11-21T00:06:01;7.80;99.90
18948;DHT22;9607;51.600;7.558;2023-11-21T00:08:28;7.70;99.90
18948;DHT22;9607;51.600;7.558;2023-11-21T00:10:55;7.80;99.90
18948;DHT22;9607;51.600;7.558;2023-11-21T00:13:23;7.80;99.90
18948;DHT22;9607;51.600;7.558;2023-11-21T00:15:49;7.70;99.90
18948;DHT22;9607;51.600;7.558;2023-11-21T00:18:18;7.80;99.90
18948;DHT22;9607;51.600;7.558;2023-11-21T00:20:44;7.70;99.90
18948;DHT22;9607;51.600;7.558;2023-11-21T00:23:11;7.80;99.90
18948;DHT22;9607;51.600;7.558;2023-11-21T00:25:38;7.80;99.90
18948;DHT22;9607;51.600;7.558;2023-11-21T00:28:05;7.80;99.90
18948;DHT22;9607;51.600;7.558;2023-11-21T00:30:32;7.80;99.90
18948;DHT22;9607;51.600;7.558;2023-11-21T00:32:59;7.80;99.90
18948;DHT22;9607;51.600;7.558;2023-11-21T00:35:28;7.80;99.90
18948;DHT22;9607;51.600;7.558;2023-11-21T00:37:55;7.80;99.90
18948;DHT22;9607;51.600;7.558;2023-11-21T00:40:23;7.90;99.90
18948;DHT22;9607;51.600;7.558;2023-11-21T00:42:50;7.90;99.90
18948;DHT22;9607;51.600;7.558;2023-11-21T00:45:17;7.90;99.90
18948;DHT22;9607;51.600;7.558;2023-11-21T00:47:43;7.90;99.90
18948;DHT22;9607;51.600;7.558;2023-11-21T00:50:10;7.90;99.90
18948;DHT22;9607;51.600;7.558;2023-11-21T00:52:38;7.90;99.90
18948;DHT22;9607;51.600;7.558;2023-11-21T00:55:06;7.90;99.90
18948;DHT22;9607;51.600;7.558;2023-11-21T00:57:36;7.90;99.90
18948;DHT22;9607;51.600;7.558;2023-11-21T01:00:04;7.90;99.90
18948;DHT22;9607;51.600;7.558;2023-11-21T01:02:33;7.90;99.90
18948;DHT22;9607;51.600;7.558;2023-11-21T01:05:02;8.00;99.90
18948;DHT22;9607;51.600;7.558;2023-11-21T01:07:29;8.10;99.90
18948;DHT22;9607;51.600;7.558;2023-11-21T01:09:57;8.00;99.90
18948;DHT22;9607;51.600;7.558;2023-11-21T01:12:24;8.10;99.90
18948;DHT22;9607;51.600;7.558;2023-11-21T01:14:53;8.00;99.90
18948;DHT22;9607;51.600;7.558;2023-11-21T01:17:20;8.00;99.90
18948;DHT22;9607;51.600;7.558;2023-11-21T01:19:48;8.00;99.90
18948;DHT22;9607;51.600;7.558;2023-11-21T01:22:15;8.10;99.90
18948;DHT22;9607;51.600;7.558;2023-11-21T01:24:42;8.00;99.90
18948;DHT22;9607;51.600;7.558;2023-11-21T01:27:10;8.10;99.90
18948;DHT22;9607;51.600;7.558;2023-11-21T01:29:38;8.10;99.90
18948;DHT22;9607;51.600;7.558;2023-11-21T01:32:05;8.10;99.90
18948;DHT22;9607;51.600;7.558;2023-11-21T01:34:33;8.10;99.90
18948;DHT22;9607;51.600;7.558;2023-11-21T01:37:00;8.10;99.90
18948;DHT22;9607;51.600;7.558;2023-11-21T01:39:28;8.10;99.90
18948;DHT22;9607;51.600;7.558;2023-11-21T01:41:55;8.10;99.90
18948;DHT22;9607;51.600;7.558;2023-11-21T01:44:25;8.00;99.90
18948;DHT22;9607;51.600;7.558;2023-11-21T01:46:52;8.00;99.90
18948;DHT22;9607;51.600;7.558;2023-11-21T01:49:19;7.90;99.90
18948;DHT22;9607;51.600;7.558;2023-11-21T01:51:48;7.90;99.90
18948;DHT22;9607;51.600;7.558;2023-11-21T01:54:16;7.90;99.90
18948;DHT22;9607;51.600;7.558;2023-11-21T01:56:44;7.80;99.90
18948;DHT22;9607;51.600;7.558;2023-11-21T01:59:14;7.90;99.90
18948;DHT22;9607;51.600;7.558;2023-11-21T02:01:43;7.80;99.90
18948;DHT22;9607;51.600;7.558;2023-11-21T02:04:12;7.80;99.90
18948;DHT22;9607;51.600;7.558;2023-11-21T02:06:39;7.70;99.90
18948;DHT22;9607;51.600;7.558;2023-11-21T02:09:05;7.60;99.90
18948;DHT22;9607;51.600;7.558;2023-11-21T02:11:32;7.50;99.90
18948;DHT22;9607;51.600;7.558;2023-11-21T02:14:03;7.40;99.90
18948;DHT22;9607;51.600;7.558;2023-11-21T02:16:33;7.30;99.90
18948;DHT22;9607;51.600;7.558;2023-11-21T02:19:02;7.30;99.90
18948;DHT22;9607;51.600;7.558;2023-11-21T02:21:31;7.20;99.90
18948;DHT22;9607;51.600;7.558;2023-11-21T02:23:59;7.20;99.90
18948;DHT22;9607;51.600;7.558;2023-11-21T02:26:26;7.20;99.90
18948;DHT22;9607;51.600;7.558;2023-11-21T02:28:53;7.20;99.90
18948;DHT22;9607;51.600;7.558;2023-11-21T02:31:20;7.20;99.90
18948;DHT22;9607;51.600;7.558;2023-11-21T02:33:48;7.30;99.90
18948;DHT22;9607;51.600;7.558;2023-11-21T02:36:15;7.30;99.90
18948;DHT22;9607;51.600;7.558;2023-11-21T02:38:42;7.30;99.90
18948;DHT22;9607;51.600;7.558;2023-11-21T02:41:10;7.40;99.90
18948;DHT22;9607;51.600;7.558;2023-11-21T02:43:37;7.40;99.90
18948;DHT22;9607;51.600;7.558;2023-11-21T02:46:04;7.40;99.90
18948;DHT22;9607;51.600;7.558;2023-11-21T02:48:31;7.30;99.90
18948;DHT22;9607;51.600;7.558;2023-11-21T02:50:58;7.40;99.90
18948;DHT22;9607;51.600;7.558;2023-11-21T02:53:25;7.40;99.90
18948;DHT22;9607;51.600;7.558;2023-11-21T02:55:52;7.40;99.90
18948;DHT22;9607;51.600;7.558;2023-11-21T02:58:20;7.40;99.90
18948;DHT22;9607;51.600;7.558;2023-11-21T03:00:47;7.40;99.90
18948;DHT22;9607;51.600;7.558;2023-11-21T03:03:14;7.40;99.90
18948;DHT22;9607;51.600;7.558;2023-11-21T03:05:40;7.40;99.90
18948;DHT22;9607;51.600;7.558;2023-11-21T03:08:10;7.40;99.90
18948;DHT22;9607;51.600;7.558;2023-11-21T03:10:38;7.40;99.90
18948;DHT22;9607;51.600;7.558;2023-11-21T03:13:05;7.40;99.90
18948;DHT22;9607;51.600;7.558;2023-11-21T03:15:33;7.40;99.90
18948;DHT22;9607;51.600;7.558;2023-11-21T03:18:01;7.40;99.90
18948;DHT22;9607;51.600;7.558;2023-11-21T03:20:28;7.50;99.90
18948;DHT22;9607;51.600;7.558;2023-11-21T03:22:55;7.50;99.90
18948;DHT22;9607;51.600;7.558;2023-11-21T03:25:22;7.50;99.90
18948;DHT22;9607;51.600;7.558;2023-11-21T03:27:49;7.50;99.90
18948;DHT22;9607;51.600;7.558;2023-11-21T03:30:16;7.60;99.90
18948;DHT22;9607;51.600;7.558;2023-11-21T03:32:44;7.60;99.90
18948;DHT22;9607;51.600;7.558;2023-11-21T03:35:11;7.60;99.90
18948;DHT22;9607;51.600;7.558;2023-11-21T03:37:38;7.60;99.90
18948;DHT22;9607;51.600;7.558;2023-11-21T03:40:08;7.70;99.90
18948;DHT22;9607;51.600;7.558;2023-11-21T03:42:35;7.60;99.90
18948;DHT22;9607;51.600;7.558;2023-11-21T03:45:03;7.60;99.90
18948;DHT22;9607;51.600;7.558;2023-11-21T03:47:29;7.60;99.90
18948;DHT22;9607;51.600;7.558;2023-11-21T03:49:58;7.60;99.90
18948;DHT22;9607;51.600;7.558;2023-11-21T03:52:25;7.60;99.90
18948;DHT22;9607;51.600;7.558;2023-11-21T03:54:52;7.50;99.90
18948;DHT22;9607;51.600;7.558;2023-11-21T03:57:20;7.50;99.90
18948;DHT22;9607;51.600;7.558;2023-11-21T03:59:47;7.50;99.90
18948;DHT22;9607;51.600;7.558;2023-11-21T04:02:14;7.50;99.90
18948;DHT22;9607;51.600;7.558;2023-11-21T04:04:40;7.50;99.90
18948;DHT22;9607;51.600;7.558;2023-11-21T04:07:08;7.50;99.90
18948;DHT22;9607;51.600;7.558;2023-11-21T04:09:36;7.50;99.90
18948;DHT22;9607;51.600;7.558;2023-11-21T04:12:03;7.50;99.90
18948;DHT22;9607;51.600;7.558;2023-11-21T04:14:30;7.50;99.90
18948;DHT22;9607;51.600;7.558;2023-11-21T04:16:58;7.50;99.90
18948;DHT22;9607;51.600;7.558;2023-11-21T04:19:25;7.50;99.90
18948;DHT22;9607;51.600;7.558;2023-11-21T04:21:52;7.60;99.90
18948;DHT22;9607;51.600;7.558;2023-11-21T04:24:20;7.60;99.90
18948;DHT22;9607;51.600;7.558;2023-11-21T04:26:47;7.60;99.90
18948;DHT22;9607;51.600;7.558;2023-11-21T04:29:13;7.70;99.90
18948;DHT22;9607;51.600;7.558;2023-11-21T04:31:40;7.70;99.90
18948;DHT22;9607;51.600;7.558;2023-11-21T04:34:08;7.70;99.90
18948;DHT22;9607;51.600;7.558;2023-11-21T04:36:35;7.70;99.90
18948;DHT22;9607;51.600;7.558;2023-11-21T04:39:02;7.70;99.90
18948;DHT22;9607;51.600;7.558;2023-11-21T04:41:30;7.80;99.90
18948;DHT22;9607;51.600;7.558;2023-11-21T04:43:58;7.80;99.90
18948;DHT22;9607;51.600;7.558;2023-11-21T04:46:26;7.80;99.90
18948;DHT22;9607;51.600;7.558;2023-11-21T04:48:53;7.80;99.90
18948;DHT22;9607;51.600;7.558;2023-11-21T04:51:19;7.80;99.90
18948;DHT22;9607;51.600;7.558;2023-11-21T04:53:46;7.80;99.90
18948;DHT22;9607;51.600;7.558;2023-11-21T04:56:13;7.70;99.90
18948;DHT22;9607;51.600;7.558;2023-11-21T04:58:43;7.60;99.90
18948;DHT22;9607;51.600;7.558;2023-11-21T05:01:09;7.50;99.90
18948;DHT22;9607;51.600;7.558;2023-11-21T05:03:37;7.40;99.90
18948;DHT22;9607;51.600;7.558;2023-11-21T05:06:04;7.30;99.90
18948;DHT22;9607;51.600;7.558;2023-11-21T05:08:31;7.20;99.90
18948;DHT22;9607;51.600;7.558;2023-11-21T05:10:58;7.10;99.90
18948;DHT22;9607;51.600;7.558;2023-11-21T05:13:25;7.00;99.90
18948;DHT22;9607;51.600;7.558;2023-11-21T05:15:54;6.90;99.90
18948;DHT22;9607;51.600;7.558;2023-11-21T05:18:21;6.90;99.90
18948;DHT22;9607;51.600;7.558;2023-11-21T05:20:48;6.90;99.90
18948;DHT22;9607;51.600;7.558;2023-11-21T05:23:15;6.90;99.90
18948;DHT22;9607;51.600;7.558;2023-11-21T05:25:42;6.90;99.90
18948;DHT22;9607;51.600;7.558;2023-11-21T05:28:09;6.90;99.90
18948;DHT22;9607;51.600;7.558;2023-11-21T05:30:36;6.90;99.90
18948;DHT22;9607;51.600;7.558;2023-11-21T05:33:06;7.00;99.90
18948;DHT22;9607;51.600;7.558;2023-11-21T05:35:33;7.00;99.90
18948;DHT22;9607;51.600;7.558;2023-11-21T05:37:59;7.10;99.90
18948;DHT22;9607;51.600;7.558;2023-11-21T05:40:26;7.10;99.90
18948;DHT22;9607;51.600;7.558;2023-11-21T05:42:55;7.10;99.90
18948;DHT22;9607;51.600;7.558;2023-11-21T05:45:23;7.10;99.90
18948;DHT22;9607;51.600;7.558;2023-11-21T05:47:50;7.10;99.90
18948;DHT22;9607;51.600;7.558;2023-11-21T05:50:18;7.20;99.90
18948;DHT22;9607;51.600;7.558;2023-11-21T05:52:46;7.30;99.90
18948;DHT22;9607;51.600;7.558;2023-11-21T05:55:13;7.40;99.90
18948;DHT22;9607;51.600;7.558;2023-11-21T05:57:41;7.40;99.90
18948;DHT22;9607;51.600;7.558;2023-11-21T06:00:11;7.40;99.90
18948;DHT22;9607;51.600;7.558;2023-11-21T06:02:44;7.40;99.90
18948;DHT22;9607;51.600;7.558;2023-11-21T06:05:10;7.40;99.90
18948;DHT22;9607;51.600;7.558;2023-11-21T06:07:39;7.40;99.90
18948;DHT22;9607;51.600;7.558;2023-11-21T06:10:07;7.40;99.90
18948;DHT22;9607;51.600;7.558;2023-11-21T06:12:35;7.30;99.90
18948;DHT22;9607;51.600;7.558;2023-11-21T06:15:03;7.30;99.90
18948;DHT22;9607;51.600;7.558;2023-11-21T06:17:31;7.30;99.90
18948;DHT22;9607;51.600;7.558;2023-11-21T06:20:00;7.30;99.90
18948;DHT22;9607;51.600;7.558;2023-11-21T06:22:29;7.30;99.90
18948;DHT22;9607;51.600;7.558;2023-11-21T06:24:57;7.30;99.90
18948;DHT22;9607;51.600;7.558;2023-11-21T06:27:24;7.30;99.90
18948;DHT22;9607;51.600;7.558;2023-11-21T06:29:51;7.30;99.90
18948;DHT22;9607;51.600;7.558;2023-11-21T06:32:18;7.30;99.90
18948;DHT22;9607;51.600;7.558;2023-11-21T06:34:46;7.40;99.90
18948;DHT22;9607;51.600;7.558;2023-11-21T06:37:12;7.30;99.90
18948;DHT22;9607;51.600;7.558;2023-11-21T06:39:39;7.30;99.90
18948;DHT22;9607;51.600;7.558;2023-11-21T06:42:08;7.30;99.90
18948;DHT22;9607;51.600;7.558;2023-11-21T06:44:36;7.30;99.90
18948;DHT22;9607;51.600;7.558;2023-11-21T06:47:04;7.40;99.90
18948;DHT22;9607;51.600;7.558;2023-11-21T06:49:31;7.50;99.90
18948;DHT22;9607;51.600;7.558;2023-11-21T06:51:58;7.50;99.90
18948;DHT22;9607;51.600;7.558;2023-11-21T06:54:27;7.60;99.90
18948;DHT22;9607;51.600;7.558;2023-11-21T06:56:53;7.60;99.90
18948;DHT22;9607;51.600;7.558;2023-11-21T06:59:23;7.70;99.90
18948;DHT22;9607;51.600;7.558;2023-11-21T07:01:50;7.70;99.90
18948;DHT22;9607;51.600;7.558;2023-11-21T07:04:17;7.80;99.90
18948;DHT22;9607;51.600;7.558;2023-11-21T07:06:44;7.80;99.90
18948;DHT22;9607;51.600;7.558;2023-11-21T07:09:11;7.80;99.90
18948;DHT22;9607;51.600;7.558;2023-11-21T07:11:38;7.90;99.90
18948;DHT22;9607;51.600;7.558;2023-11-21T07:14:05;7.90;99.90
18948;DHT22;9607;51.600;7.558;2023-11-21T07:16:34;8.00;99.90
18948;DHT22;9607;51.600;7.558;2023-11-21T07:19:03;8.00;99.90
18948;DHT22;9607;51.600;7.558;2023-11-21T07:21:31;8.00;99.90
18948;DHT22;9607;51.600;7.558;2023-11-21T07:23:58;8.10;99.90
18948;DHT22;9607;51.600;7.558;2023-11-21T07:26:25;8.10;99.90
18948;DHT22;9607;51.600;7.558;2023-11-21T07:28:55;8.20;99.90
18948;DHT22;9607;51.600;7.558;2023-11-21T07:31:23;8.20;99.90
18948;DHT22;9607;51.600;7.558;2023-11-21T07:33:52;8.30;99.90
18948;DHT22;9607;51.600;7.558;2023-11-21T07:36:19;8.30;99.90
18948;DHT22;9607;51.600;7.558;2023-11-21T07:38:46;8.30;99.90
18948;DHT22;9607;51.600;7.558;2023-11-21T07:41:13;8.40;99.90
18948;DHT22;9607;51.600;7.558;2023-11-21T07:43:41;8.40;99.90
18948;DHT22;9607;51.600;7.558;2023-11-21T07:46:08;8.50;99.90
18948;DHT22;9607;51.600;7.558;2023-11-21T07:48:34;8.50;99.90
18948;DHT22;9607;51.600;7.558;2023-11-21T07:51:03;8.50;99.90
18948;DHT22;9607;51.600;7.558;2023-11-21T07:53:30;8.60;99.90
18948;DHT22;9607;51.600;7.558;2023-11-21T07:55:58;8.60;99.90
18948;DHT22;9607;51.600;7.558;2023-11-21T07:58:24;8.70;99.90
18948;DHT22;9607;51.600;7.558;2023-11-21T08:00:51;8.70;99.90
18948;DHT22;9607;51.600;7.558;2023-11-21T08:03:18;8.70;99.90
18948;DHT22;9607;51.600;7.558;2023-11-21T08:05:45;8.80;99.90
18948;DHT22;9607;51.600;7.558;2023-11-21T08:08:13;8.80;99.90
18948;DHT22;9607;51.600;7.558;2023-11-21T08:10:40;8.90;99.90
18948;DHT22;9607;51.600;7.558;2023-11-21T08:13:07;8.90;99.90
18948;DHT22;9607;51.600;7.558;2023-11-21T08:15:34;8.90;99.90
18948;DHT22;9607;51.600;7.558;2023-11-21T08:18:02;9.00;99.90
18948;DHT22;9607;51.600;7.558;2023-11-21T08:20:33;9.10;99.90
18948;DHT22;9607;51.600;7.558;2023-11-21T08:23:04;9.10;99.90
18948;DHT22;9607;51.600;7.558;2023-11-21T08:25:32;9.10;99.90
18948;DHT22;9607;51.600;7.558;2023-11-21T08:28:00;9.10;99.90
18948;DHT22;9607;51.600;7.558;2023-11-21T08:30:27;9.10;99.90
18948;DHT22;9607;51.600;7.558;2023-11-21T08:32:55;9.10;99.90
18948;DHT22;9607;51.600;7.558;2023-11-21T08:35:23;9.10;99.90
18948;DHT22;9607;51.600;7.558;2023-11-21T08:37:51;9.20;99.90
18948;DHT22;9607;51.600;7.558;2023-11-21T08:40:18;9.20;99.90
18948;DHT22;9607;51.600;7.558;2023-11-21T08:42:48;9.20;99.90
18948;DHT22;9607;51.600;7.558;2023-11-21T08:45:15;9.30;99.90
18948;DHT22;9607;51.600;7.558;2023-11-21T08:47:43;9.30;99.90
18948;DHT22;9607;51.600;7.558;2023-11-21T08:50:10;9.30;99.90
18948;DHT22;9607;51.600;7.558;2023-11-21T08:52:38;9.30;99.90
18948;DHT22;9607;51.600;7.558;2023-11-21T08:55:06;9.30;99.90
18948;DHT22;9607;51.600;7.558;2023-11-21T08:57:34;9.30;99.90
18948;DHT22;9607;51.600;7.558;2023-11-21T09:00:04;9.40;99.90
18948;DHT22;9607;51.600;7.558;2023-11-21T09:02:33;9.40;99.90
18948;DHT22;9607;51.600;7.558;2023-11-21T09:05:00;9.50;99.90
18948;DHT22;9607;51.600;7.558;2023-11-21T09:07:28;9.50;99.90
18948;DHT22;9607;51.600;7.558;2023-11-21T09:09:55;9.60;99.90
18948;DHT22;9607;51.600;7.558;2023-11-21T09:12:23;9.80;99.90
18948;DHT22;9607;51.600;7.558;2023-11-21T09:14:50;9.80;99.90
18948;DHT22;9607;51.600;7.558;2023-11-21T09:17:18;9.90;99.90
18948;DHT22;9607;51.600;7.558;2023-11-21T09:19:45;10.00;99.90
18948;DHT22;9607;51.600;7.558;2023-11-21T09:22:15;10.10;99.90
18948;DHT22;9607;51.600;7.558;2023-11-21T09:24:42;10.10;99.90
18948;DHT22;9607;51.600;7.558;2023-11-21T09:27:09;10.10;99.90
18948;DHT22;9607;51.600;7.558;2023-11-21T09:29:36;10.20;99.90
18948;DHT22;9607;51.600;7.558;2023-11-21T09:32:04;10.20;99.90
18948;DHT22;9607;51.600;7.558;2023-11-21T09:34:34;10.20;99.90
18948;DHT22;9607;51.600;7.558;2023-11-21T09:37:03;10.10;99.90
18948;DHT22;9607;51.600;7.558;2023-11-21T09:39:32;10.00;99.90
18948;DHT22;9607;51.600;7.558;2023-11-21T09:42:04;9.90;99.90
18948;DHT22;9607;51.600;7.558;2023-11-21T09:44:36;9.90;99.90
18948;DHT22;9607;51.600;7.558;2023-11-21T09:47:10;9.90;99.90
18948;DHT22;9607;51.600;7.558;2023-11-21T09:49:43;9.80;99.90
18948;DHT22;9607;51.600;7.558;2023-11-21T09:52:21;9.70;99.90
18948;DHT22;9607;51.600;7.558;2023-11-21T09:54:51;9.60;99.90
18948;DHT22;9607;51.600;7.558;2023-11-21T09:57:19;9.70;99.90
18948;DHT22;9607;51.600;7.558;2023-11-21T09:59:47;9.70;99.90
18948;DHT22;9607;51.600;7.558;2023-11-21T10:02:17;9.60;99.90
18948;DHT22;9607;51.600;7.558;2023-11-21T10:04:47;9.60;99.90
18948;DHT22;9607;51.600;7.558;2023-11-21T10:07:17;9.60;99.90
18948;DHT22;9607;51.600;7.558;2023-11-21T10:09:46;9.60;99.90
18948;DHT22;9607;51.600;7.558;2023-11-21T10:12:15;9.70;99.90
18948;DHT22;9607;51.600;7.558;2023-11-21T10:14:43;9.80;99.90
18948;DHT22;9607;51.600;7.558;2023-11-21T10:17:14;9.80;99.90
18948;DHT22;9607;51.600;7.558;2023-11-21T10:19:47;9.90;99.90
18948;DHT22;9607;51.600;7.558;2023-11-21T10:22:15;9.90;99.90
18948;DHT22;9607;51.600;7.558;2023-11-21T10:24:43;9.90;99.90
18948;DHT22;9607;51.600;7.558;2023-11-21T10:27:10;9.90;99.90
18948;DHT22;9607;51.600;7.558;2023-11-21T10:29:36;9.90;99.90
18948;DHT22;9607;51.600;7.558;2023-11-21T10:32:04;10.00;99.90
18948;DHT22;9607;51.600;7.558;2023-11-21T10:34:31;10.10;99.90
18948;DHT22;9607;51.600;7.558;2023-11-21T10:37:11;10.00;99.90
18948;DHT22;9607;51.600;7.558;2023-11-21T10:39:39;10.00;99.90
18948;DHT22;9607;51.600;7.558;2023-11-21T10:42:08;10.00;99.90
18948;DHT22;9607;51.600;7.558;2023-11-21T10:44:35;10.00;99.90
18948;DHT22;9607;51.600;7.558;2023-11-21T10:47:03;10.00;99.90
18948;DHT22;9607;51.600;7.558;2023-11-21T10:49:30;10.10;99.90
18948;DHT22;9607;51.600;7.558;2023-11-21T10:51:57;10.10;99.90
18948;DHT22;9607;51.600;7.558;2023-11-21T10:54:26;10.00;99.90
18948;DHT22;9607;51.600;7.558;2023-11-21T10:56:56;10.10;99.90
18948;DHT22;9607;51.600;7.558;2023-11-21T10:59:23;10.10;99.90
18948;DHT22;9607;51.600;7.558;2023-11-21T11:01:51;10.10;99.90
18948;DHT22;9607;51.600;7.558;2023-11-21T11:04:19;10.10;99.90
18948;DHT22;9607;51.600;7.558;2023-11-21T11:06:51;10.10;99.90
18948;DHT22;9607;51.600;7.558;2023-11-21T11:09:19;10.20;99.90
18948;DHT22;9607;51.600;7.558;2023-11-21T11:11:48;10.20;99.90
18948;DHT22;9607;51.600;7.558;2023-11-21T11:14:14;10.30;99.90
18948;DHT22;9607;51.600;7.558;2023-11-21T11:16:42;10.30;99.90
18948;DHT22;9607;51.600;7.558;2023-11-21T11:19:10;10.30;99.90
18948;DHT22;9607;51.600;7.558;2023-11-21T11:21:46;10.30;99.90
18948;DHT22;9607;51.600;7.558;2023-11-21T11:24:38;10.30;99.90
18948;DHT22;9607;51.600;7.558;2023-11-21T11:27:15;10.20;99.90
18948;DHT22;9607;51.600;7.558;2023-11-21T11:29:54;10.20;99.90
18948;DHT22;9607;51.600;7.558;2023-11-21T11:32:28;10.10;99.90
18948;DHT22;9607;51.600;7.558;2023-11-21T11:35:06;10.00;99.90
18948;DHT22;9607;51.600;7.558;2023-11-21T11:37:37;10.00;99.90
18948;DHT22;9607;51.600;7.558;2023-11-21T11:40:06;10.00;99.90
18948;DHT22;9607;51.600;7.558;2023-11-21T11:42:35;10.10;99.90
18948;DHT22;9607;51.600;7.558;2023-11-21T11:45:17;10.10;99.90
18948;DHT22;9607;51.600;7.558;2023-11-21T11:47:48;10.20;99.90
18948;DHT22;9607;51.600;7.558;2023-11-21T11:50:14;10.20;99.90
18948;DHT22;9607;51.600;7.558;2023-11-21T11:52:47;10.20;99.90
18948;DHT22;9607;51.600;7.558;2023-11-21T11:55:15;10.20;99.90
18948;DHT22;9607;51.600;7.558;2023-11-21T11:57:48;10.30;99.90
18948;DHT22;9607;51.600;7.558;2023-11-21T12:00:17;10.20;99.90
18948;DHT22;9607;51.600;7.558;2023-11-21T12:02:47;10.20;99.90
18948;DHT22;9607;51.600;7.558;2023-11-21T12:05:15;10.20;99.90
18948;DHT22;9607;51.600;7.558;2023-11-21T12:07:45;10.30;99.90
18948;DHT22;9607;51.600;7.558;2023-11-21T12:10:14;10.40;99.90
18948;DHT22;9607;51.600;7.558;2023-11-21T12:12:44;10.40;99.90
18948;DHT22;9607;51.600;7.558;2023-11-21T12:15:13;10.30;99.90
18948;DHT22;9607;51.600;7.558;2023-11-21T12:17:43;10.30;99.90
18948;DHT22;9607;51.600;7.558;2023-11-21T12:20:11;10.20;99.90
18948;DHT22;9607;51.600;7.558;2023-11-21T12:22:44;10.20;99.90
18948;DHT22;9607;51.600;7.558;2023-11-21T12:25:13;10.20;99.90
18948;DHT22;9607;51.600;7.558;2023-11-21T12:27:43;10.20;99.90
18948;DHT22;9607;51.600;7.558;2023-11-21T12:30:13;10.20;99.90
18948;DHT22;9607;51.600;7.558;2023-11-21T12:32:42;10.20;99.90
18948;DHT22;9607;51.600;7.558;2023-11-21T12:35:10;10.20;99.90
18948;DHT22;9607;51.600;7.558;2023-11-21T12:37:37;10.10;99.90
18948;DHT22;9607;51.600;7.558;2023-11-21T12:40:06;10.10;99.90
18948;DHT22;9607;51.600;7.558;2023-11-21T12:42:33;10.10;99.90
18948;DHT22;9607;51.600;7.558;2023-11-21T12:45:19;10.10;99.90
18948;DHT22;9607;51.600;7.558;2023-11-21T12:47:47;10.20;99.90
18948;DHT22;9607;51.600;7.558;2023-11-21T12:50:15;10.20;99.90
18948;DHT22;9607;51.600;7.558;2023-11-21T12:52:47;10.30;99.90
18948;DHT22;9607;51.600;7.558;2023-11-21T12:55:17;10.30;99.90
18948;DHT22;9607;51.600;7.558;2023-11-21T12:57:48;10.30;99.90
18948;DHT22;9607;51.600;7.558;2023-11-21T13:00:16;10.40;99.90
18948;DHT22;9607;51.600;7.558;2023-11-21T13:02:55;10.30;99.90
18948;DHT22;9607;51.600;7.558;2023-11-21T13:05:25;10.30;99.90
18948;DHT22;9607;51.600;7.558;2023-11-21T13:07:52;10.30;99.90
18948;DHT22;9607;51.600;7.558;2023-11-21T13:10:21;10.20;99.90
18948;DHT22;9607;51.600;7.558;2023-11-21T13:12:52;10.20;99.90
18948;DHT22;9607;51.600;7.558;2023-11-21T13:15:20;10.10;99.90
18948;DHT22;9607;51.600;7.558;2023-11-21T13:17:47;10.10;99.90
18948;DHT22;9607;51.600;7.558;2023-11-21T13:20:17;10.10;99.90
18948;DHT22;9607;51.600;7.558;2023-11-21T13:22:49;10.00;99.90
18948;DHT22;9607;51.600;7.558;2023-11-21T13:25:16;9.90;99.90
18948;DHT22;9607;51.600;7.558;2023-11-21T13:27:45;9.90;99.90
18948;DHT22;9607;51.600;7.558;2023-11-21T13:30:13;9.80;99.90
18948;DHT22;9607;51.600;7.558;2023-11-21T13:32:44;9.90;99.90
18948;DHT22;9607;51.600;7.558;2023-11-21T13:35:13;9.90;99.90
18948;DHT22;9607;51.600;7.558;2023-11-21T13:37:51;9.90;99.90
18948;DHT22;9607;51.600;7.558;2023-11-21T13:40:21;9.90;99.90
18948;DHT22;9607;51.600;7.558;2023-11-21T13:42:51;9.90;99.90
18948;DHT22;9607;51.600;7.558;2023-11-21T13:45:21;9.80;99.90
18948;DHT22;9607;51.600;7.558;2023-11-21T13:47:49;9.80;99.90
18948;DHT22;9607;51.600;7.558;2023-11-21T13:50:18;9.80;99.90
18948;DHT22;9607;51.600;7.558;2023-11-21T13:52:49;9.80;99.90
18948;DHT22;9607;51.600;7.558;2023-11-21T13:55:18;9.70;99.90
18948;DHT22;9607;51.600;7.558;2023-11-21T13:57:46;9.60;99.90
18948;DHT22;9607;51.600;7.558;2023-11-21T14:00:16;9.60;99.90
18948;DHT22;9607;51.600;7.558;2023-11-21T14:02:56;9.60;99.90
18948;DHT22;9607;51.600;7.558;2023-11-21T14:05:26;9.60;99.90
18948;DHT22;9607;51.600;7.558;2023-11-21T14:07:55;9.70;99.90
18948;DHT22;9607;51.600;7.558;2023-11-21T14:10:29;9.70;99.90
18948;DHT22;9607;51.600;7.558;2023-11-21T14:13:03;9.70;99.90
18948;DHT22;9607;51.600;7.558;2023-11-21T14:15:31;9.70;99.90
18948;DHT22;9607;51.600;7.558;2023-11-21T14:17:58;9.70;99.90
18948;DHT22;9607;51.600;7.558;2023-11-21T14:20:28;9.70;99.90
18948;DHT22;9607;51.600;7.558;2023-11-21T14:22:55;9.80;99.90
18948;DHT22;9607;51.600;7.558;2023-11-21T14:25:22;9.80;99.90
18948;DHT22;9607;51.600;7.558;2023-11-21T14:27:51;9.70;99.90
18948;DHT22;9607;51.600;7.558;2023-11-21T14:30:18;9.70;99.90
18948;DHT22;9607;51.600;7.558;2023-11-21T14:32:47;9.70;99.90
18948;DHT22;9607;51.600;7.558;2023-11-21T14:35:15;9.70;99.90
18948;DHT22;9607;51.600;7.558;2023-11-21T14:37:42;9.60;99.90
18948;DHT22;9607;51.600;7.558;2023-11-21T14:40:11;9.60;99.90
18948;DHT22;9607;51.600;7.558;2023-11-21T14:42:42;9.60;99.90
18948;DHT22;9607;51.600;7.558;2023-11-21T14:45:14;9.60;99.90
18948;DHT22;9607;51.600;7.558;2023-11-21T14:47:45;9.50;99.90
18948;DHT22;9607;51.600;7.558;2023-11-21T14:50:18;9.50;99.90
18948;DHT22;9607;51.600;7.558;2023-11-21T14:53:13;9.50;99.90
18948;DHT22;9607;51.600;7.558;2023-11-21T14:55:40;9.40;99.90
18948;DHT22;9607;51.600;7.558;2023-11-21T14:58:20;9.30;99.90
18948;DHT22;9607;51.600;7.558;2023-11-21T15:00:54;9.20;99.90
18948;DHT22;9607;51.600;7.558;2023-11-21T15:03:24;9.10;99.90
18948;DHT22;9607;51.600;7.558;2023-11-21T15:06:06;9.00;99.90
18948;DHT22;9607;51.600;7.558;2023-11-21T15:08:48;8.90;99.90
18948;DHT22;9607;51.600;7.558;2023-11-21T15:11:20;8.90;99.90
18948;DHT22;9607;51.600;7.558;2023-11-21T15:13:55;8.80;99.90
18948;DHT22;9607;51.600;7.558;2023-11-21T15:16:23;8.80;99.90
18948;DHT22;9607;51.600;7.558;2023-11-21T15:18:54;8.70;99.90
18948;DHT22;9607;51.600;7.558;2023-11-21T15:21:21;8.70;99.90
18948;DHT22;9607;51.600;7.558;2023-11-21T15:23:49;8.70;99.90
18948;DHT22;9607;51.600;7.558;2023-11-21T15:26:17;8.60;99.90
18948;DHT22;9607;51.600;7.558;2023-11-21T15:28:43;8.60;99.90
18948;DHT22;9607;51.600;7.558;2023-11-21T15:31:10;8.60;99.90
18948;DHT22;9607;51.600;7.558;2023-11-21T15:33:38;8.60;99.90
18948;DHT22;9607;51.600;7.558;2023-11-21T15:36:05;8.60;99.90
18948;DHT22;9607;51.600;7.558;2023-11-21T15:38:35;8.50;99.90
18948;DHT22;9607;51.600;7.558;2023-11-21T15:41:03;8.50;99.90
18948;DHT22;9607;51.600;7.558;2023-11-21T15:43:30;8.50;99.90
18948;DHT22;9607;51.600;7.558;2023-11-21T15:45:58;8.40;99.90
18948;DHT22;9607;51.600;7.558;2023-11-21T15:48:27;8.40;99.90
18948;DHT22;9607;51.600;7.558;2023-11-21T15:50:57;8.40;99.90
18948;DHT22;9607;51.600;7.558;2023-11-21T15:53:24;8.40;99.90
18948;DHT22;9607;51.600;7.558;2023-11-21T15:55:51;8.30;99.90
18948;DHT22;9607;51.600;7.558;2023-11-21T15:58:18;8.30;99.90
18948;DHT22;9607;51.600;7.558;2023-11-21T16:00:45;8.30;99.90
18948;DHT22;9607;51.600;7.558;2023-11-21T16:03:11;8.20;99.90
18948;DHT22;9607;51.600;7.558;2023-11-21T16:05:40;8.20;99.90
18948;DHT22;9607;51.600;7.558;2023-11-21T16:08:11;8.10;99.90